Pagrindinis puslapis
METAR-TAF:

METAR-TAF

Oro uostai :

Tarakan, Indonezija

platuma: 03-19-36N, ilguma: 117-33-56E, Aukštis: 6 m

Dabartinis oras

Ataskaita buvo paskelbta 9 valandos ir 6 minutes, ne 12:00 UTC
Vėjas 4 kt iš Rytų
Temperatūra 28°C
Drėgmė 84%
Slėgis 1010 hPa
Matomumas: 8000 m
Mažai debesys ne aukštis 1500 ft

METAR: WAQQ 201200Z 10004KT 8000 FEW015 28/25 Q1010

Laikas: 04:06 (21:06 UTC)

Prognozė

Ataskaita buvo paskelbta 4 valandos ir 6 minutes, ne 17:00 UTC
Prognozė galioja nuo 20 metu 18 UTC su 21 metu 06 UTC
Vėjas 3 kt iš Pietų
Matomumas: 8000 m
Išsisklaidę debesys ne aukštis 1500 ft

TAF: WAQQ 201700Z 2018/2106 17003KT 8000 SCT015

Orai ataskaitas ir orų prognozės (METAR, TAF).

turimą stotys yra geltonos ir raudonos taškus žemėlapyje.

Perkelti pele per norėdami pamatyti stoties vardą.

Tada spustelėkite, norėdami matyti oro stebėjimo ir prognozės.

Norėdami pakeisti žemėlapį: spustelėkite ant žalios mygtukų su juodo kryžiaus žemyn,; žalią mygtuką su brūkšneliu, jei norite nutolinti; arba žalių rodyklių gretimoms žemėlapius.


METAR-TAF: